sensor_id;sensor_type;location;lat;lon;timestamp;pressure;altitude;pressure_sealevel;temperature;humidity
4972;BME280;2501;51.214;6.768;2023-05-02T00:01:12;101556.22;;;10.98;94.42
4972;BME280;2501;51.214;6.768;2023-05-02T00:03:40;101566.59;;;10.92;94.85
4972;BME280;2501;51.214;6.768;2023-05-02T00:06:12;101570.72;;;10.77;95.50
4972;BME280;2501;51.214;6.768;2023-05-02T00:08:41;101571.53;;;10.73;96.18
4972;BME280;2501;51.214;6.768;2023-05-02T00:11:09;101577.63;;;10.74;96.49
4972;BME280;2501;51.214;6.768;2023-05-02T00:13:38;101578.22;;;10.58;96.78
4972;BME280;2501;51.214;6.768;2023-05-02T00:16:08;101588.47;;;10.45;97.70
4972;BME280;2501;51.214;6.768;2023-05-02T00:18:36;101588.69;;;10.56;97.99
4972;BME280;2501;51.214;6.768;2023-05-02T00:21:05;101585.94;;;10.50;97.88
4972;BME280;2501;51.214;6.768;2023-05-02T00:23:37;101583.28;;;10.49;97.99
4972;BME280;2501;51.214;6.768;2023-05-02T00:26:07;101590.97;;;10.38;98.46
4972;BME280;2501;51.214;6.768;2023-05-02T00:28:36;101590.03;;;10.36;98.61
4972;BME280;2501;51.214;6.768;2023-05-02T00:31:04;101597.56;;;10.19;99.06
4972;BME280;2501;51.214;6.768;2023-05-02T00:33:33;101598.50;;;10.21;99.39
4972;BME280;2501;51.214;6.768;2023-05-02T00:36:02;101599.16;;;10.14;99.94
4972;BME280;2501;51.214;6.768;2023-05-02T00:38:30;101594.66;;;10.08;100.00
4972;BME280;2501;51.214;6.768;2023-05-02T00:41:01;101601.13;;;10.23;100.00
4972;BME280;2501;51.214;6.768;2023-05-02T00:43:30;101605.66;;;10.30;100.00
4972;BME280;2501;51.214;6.768;2023-05-02T00:45:59;101607.25;;;10.23;100.00
4972;BME280;2501;51.214;6.768;2023-05-02T00:48:27;101611.56;;;10.20;100.00
4972;BME280;2501;51.214;6.768;2023-05-02T00:50:57;101617.69;;;10.22;100.00
4972;BME280;2501;51.214;6.768;2023-05-02T00:53:25;101621.22;;;10.24;100.00
4972;BME280;2501;51.214;6.768;2023-05-02T00:55:54;101614.44;;;10.32;100.00
4972;BME280;2501;51.214;6.768;2023-05-02T00:58:25;101614.47;;;10.33;100.00
4972;BME280;2501;51.214;6.768;2023-05-02T01:01:03;101613.06;;;10.10;100.00
4972;BME280;2501;51.214;6.768;2023-05-02T01:03:40;101612.44;;;10.22;100.00
4972;BME280;2501;51.214;6.768;2023-05-02T01:06:38;101608.44;;;9.98;100.00
4972;BME280;2501;51.214;6.768;2023-05-02T01:09:16;101607.41;;;9.92;100.00
4972;BME280;2501;51.214;6.768;2023-05-02T01:11:55;101616.38;;;10.01;100.00
4972;BME280;2501;51.214;6.768;2023-05-02T01:14:34;101619.00;;;10.01;100.00
4972;BME280;2501;51.214;6.768;2023-05-02T01:17:06;101614.34;;;9.90;100.00
4972;BME280;2501;51.214;6.768;2023-05-02T01:19:39;101627.81;;;9.67;100.00
4972;BME280;2501;51.214;6.768;2023-05-02T01:22:10;101630.34;;;9.63;100.00
4972;BME280;2501;51.214;6.768;2023-05-02T01:24:46;101639.47;;;9.80;100.00
4972;BME280;2501;51.214;6.768;2023-05-02T01:27:23;101637.81;;;9.84;100.00
4972;BME280;2501;51.214;6.768;2023-05-02T01:29:59;101636.41;;;9.62;100.00
4972;BME280;2501;51.214;6.768;2023-05-02T01:32:30;101635.72;;;9.69;100.00
4972;BME280;2501;51.214;6.768;2023-05-02T01:35:00;101648.63;;;9.61;100.00
4972;BME280;2501;51.214;6.768;2023-05-02T01:37:30;101644.28;;;9.62;100.00
4972;BME280;2501;51.214;6.768;2023-05-02T01:40:02;101649.22;;;9.87;100.00
4972;BME280;2501;51.214;6.768;2023-05-02T01:42:33;101643.28;;;9.94;100.00
4972;BME280;2501;51.214;6.768;2023-05-02T01:45:08;101662.41;;;9.90;100.00
4972;BME280;2501;51.214;6.768;2023-05-02T01:47:39;101654.94;;;10.08;100.00
4972;BME280;2501;51.214;6.768;2023-05-02T01:50:11;101654.84;;;10.02;100.00
4972;BME280;2501;51.214;6.768;2023-05-02T01:52:41;101650.41;;;10.00;100.00
4972;BME280;2501;51.214;6.768;2023-05-02T01:55:13;101664.06;;;9.85;100.00
4972;BME280;2501;51.214;6.768;2023-05-02T01:57:45;101670.00;;;10.17;100.00
4972;BME280;2501;51.214;6.768;2023-05-02T02:00:18;101663.84;;;10.15;100.00
4972;BME280;2501;51.214;6.768;2023-05-02T02:02:48;101680.97;;;10.37;100.00
4972;BME280;2501;51.214;6.768;2023-05-02T02:05:19;101677.69;;;10.47;100.00
4972;BME280;2501;51.214;6.768;2023-05-02T02:07:48;101674.78;;;10.33;100.00
4972;BME280;2501;51.214;6.768;2023-05-02T02:10:17;101674.28;;;10.51;100.00
4972;BME280;2501;51.214;6.768;2023-05-02T02:12:51;101682.03;;;10.46;100.00
4972;BME280;2501;51.214;6.768;2023-05-02T02:15:26;101679.28;;;10.39;99.92
4972;BME280;2501;51.214;6.768;2023-05-02T02:17:59;101675.00;;;10.44;99.39
4972;BME280;2501;51.214;6.768;2023-05-02T02:20:28;101682.38;;;10.63;98.99
4972;BME280;2501;51.214;6.768;2023-05-02T02:22:59;101676.00;;;10.51;98.94
4972;BME280;2501;51.214;6.768;2023-05-02T02:25:28;101683.03;;;10.52;99.38
4972;BME280;2501;51.214;6.768;2023-05-02T02:27:57;101676.09;;;10.54;99.41
4972;BME280;2501;51.214;6.768;2023-05-02T02:30:28;101683.09;;;10.55;99.60
4972;BME280;2501;51.214;6.768;2023-05-02T02:32:57;101689.19;;;10.54;99.67
4972;BME280;2501;51.214;6.768;2023-05-02T02:35:30;101685.75;;;10.56;99.86
4972;BME280;2501;51.214;6.768;2023-05-02T02:38:07;101690.94;;;10.53;100.00
4972;BME280;2501;51.214;6.768;2023-05-02T02:40:40;101687.53;;;10.59;100.00
4972;BME280;2501;51.214;6.768;2023-05-02T02:43:18;101692.03;;;10.64;100.00
4972;BME280;2501;51.214;6.768;2023-05-02T02:45:56;101696.28;;;10.59;100.00
4972;BME280;2501;51.214;6.768;2023-05-02T02:48:32;101689.31;;;10.60;100.00
4972;BME280;2501;51.214;6.768;2023-05-02T02:51:07;101695.38;;;10.57;100.00
4972;BME280;2501;51.214;6.768;2023-05-02T02:53:48;101706.66;;;10.53;100.00
4972;BME280;2501;51.214;6.768;2023-05-02T02:56:23;101706.81;;;10.61;100.00
4972;BME280;2501;51.214;6.768;2023-05-02T02:58:56;101709.44;;;10.61;100.00
4972;BME280;2501;51.214;6.768;2023-05-02T03:01:31;101705.81;;;10.54;100.00
4972;BME280;2501;51.214;6.768;2023-05-02T03:04:02;101698.84;;;10.55;100.00
4972;BME280;2501;51.214;6.768;2023-05-02T03:06:33;101706.75;;;10.58;100.00
4972;BME280;2501;51.214;6.768;2023-05-02T03:09:02;101707.69;;;10.61;100.00
4972;BME280;2501;51.214;6.768;2023-05-02T03:11:31;101717.13;;;10.52;100.00
4972;BME280;2501;51.214;6.768;2023-05-02T03:14:00;101723.31;;;10.54;100.00
4972;BME280;2501;51.214;6.768;2023-05-02T03:16:34;101724.06;;;10.50;100.00
4972;BME280;2501;51.214;6.768;2023-05-02T03:19:03;101726.59;;;10.45;100.00
4972;BME280;2501;51.214;6.768;2023-05-02T03:21:33;101724.13;;;10.51;100.00
4972;BME280;2501;51.214;6.768;2023-05-02T03:24:03;101729.13;;;10.42;100.00
4972;BME280;2501;51.214;6.768;2023-05-02T03:26:35;101725.66;;;10.43;100.00
4972;BME280;2501;51.214;6.768;2023-05-02T03:29:03;101731.81;;;10.43;100.00
4972;BME280;2501;51.214;6.768;2023-05-02T03:31:35;101731.88;;;10.46;100.00
4972;BME280;2501;51.214;6.768;2023-05-02T03:34:03;101727.47;;;10.45;100.00
4972;BME280;2501;51.214;6.768;2023-05-02T03:36:31;101730.34;;;10.56;100.00
4972;BME280;2501;51.214;6.768;2023-05-02T03:39:00;101734.53;;;10.48;100.00
4972;BME280;2501;51.214;6.768;2023-05-02T03:41:28;101736.34;;;10.51;100.00
4972;BME280;2501;51.214;6.768;2023-05-02T03:43:57;101735.59;;;10.56;100.00
4972;BME280;2501;51.214;6.768;2023-05-02T03:46:25;101734.75;;;10.59;100.00
4972;BME280;2501;51.214;6.768;2023-05-02T03:48:56;101728.47;;;10.51;100.00
4972;BME280;2501;51.214;6.768;2023-05-02T03:51:25;101737.16;;;10.48;99.87
4972;BME280;2501;51.214;6.768;2023-05-02T03:53:53;101738.94;;;10.49;99.18
4972;BME280;2501;51.214;6.768;2023-05-02T03:56:22;101737.22;;;10.51;99.21
4972;BME280;2501;51.214;6.768;2023-05-02T03:58:51;101744.19;;;10.49;99.07
4972;BME280;2501;51.214;6.768;2023-05-02T04:01:19;101750.13;;;10.42;99.03
4972;BME280;2501;51.214;6.768;2023-05-02T04:03:49;101745.94;;;10.50;98.80
4972;BME280;2501;51.214;6.768;2023-05-02T04:06:20;101754.59;;;10.46;99.18
4972;BME280;2501;51.214;6.768;2023-05-02T04:08:48;101748.59;;;10.52;99.21
4972;BME280;2501;51.214;6.768;2023-05-02T04:11:17;101747.97;;;10.63;99.21
4972;BME280;2501;51.214;6.768;2023-05-02T04:13:45;101743.88;;;10.76;99.11
4972;BME280;2501;51.214;6.768;2023-05-02T04:16:13;101748.44;;;10.85;98.40
4972;BME280;2501;51.214;6.768;2023-05-02T04:18:42;101753.44;;;10.74;98.09
4972;BME280;2501;51.214;6.768;2023-05-02T04:21:10;101748.53;;;10.89;97.90
4972;BME280;2501;51.214;6.768;2023-05-02T04:23:41;101756.41;;;10.89;97.40
4972;BME280;2501;51.214;6.768;2023-05-02T04:26:10;101766.06;;;10.92;97.13
4972;BME280;2501;51.214;6.768;2023-05-02T04:28:38;101757.06;;;10.79;96.91
4972;BME280;2501;51.214;6.768;2023-05-02T04:31:06;101769.28;;;10.78;97.50
4972;BME280;2501;51.214;6.768;2023-05-02T04:33:35;101774.72;;;10.86;97.12
4972;BME280;2501;51.214;6.768;2023-05-02T04:36:04;101781.44;;;10.75;97.47
4972;BME280;2501;51.214;6.768;2023-05-02T04:38:33;101778.72;;;10.69;97.75
4972;BME280;2501;51.214;6.768;2023-05-02T04:41:04;101782.75;;;10.95;96.93
4972;BME280;2501;51.214;6.768;2023-05-02T04:43:33;101789.31;;;10.73;96.59
4972;BME280;2501;51.214;6.768;2023-05-02T04:46:01;101792.41;;;10.96;96.36
4972;BME280;2501;51.214;6.768;2023-05-02T04:48:30;101795.94;;;10.98;95.79
4972;BME280;2501;51.214;6.768;2023-05-02T04:50:58;101801.00;;;10.88;95.70
4972;BME280;2501;51.214;6.768;2023-05-02T04:53:27;101810.44;;;10.79;95.97
4972;BME280;2501;51.214;6.768;2023-05-02T04:55:55;101817.53;;;10.84;95.60
4972;BME280;2501;51.214;6.768;2023-05-02T04:58:27;101820.19;;;10.85;96.17
4972;BME280;2501;51.214;6.768;2023-05-02T05:00:55;101823.44;;;10.73;95.95
4972;BME280;2501;51.214;6.768;2023-05-02T05:03:23;101821.88;;;10.83;95.90
4972;BME280;2501;51.214;6.768;2023-05-02T05:05:54;101827.31;;;10.92;96.59
4972;BME280;2501;51.214;6.768;2023-05-02T05:08:22;101833.13;;;10.77;98.38
4972;BME280;2501;51.214;6.768;2023-05-02T05:10:51;101831.03;;;10.63;100.00
4972;BME280;2501;51.214;6.768;2023-05-02T05:13:20;101834.00;;;10.78;100.00
4972;BME280;2501;51.214;6.768;2023-05-02T05:15:51;101836.31;;;10.64;100.00
4972;BME280;2501;51.214;6.768;2023-05-02T05:18:20;101840.03;;;10.74;100.00
4972;BME280;2501;51.214;6.768;2023-05-02T05:20:48;101837.19;;;10.63;100.00
4972;BME280;2501;51.214;6.768;2023-05-02T05:23:16;101840.84;;;10.70;100.00
4972;BME280;2501;51.214;6.768;2023-05-02T05:25:45;101846.31;;;10.80;100.00
4972;BME280;2501;51.214;6.768;2023-05-02T05:28:13;101843.47;;;10.70;100.00
4972;BME280;2501;51.214;6.768;2023-05-02T05:30:42;101848.63;;;10.67;100.00
4972;BME280;2501;51.214;6.768;2023-05-02T05:33:13;101858.78;;;10.52;100.00
4972;BME280;2501;51.214;6.768;2023-05-02T05:35:42;101859.53;;;10.48;100.00
4972;BME280;2501;51.214;6.768;2023-05-02T05:38:10;101858.53;;;10.42;100.00
4972;BME280;2501;51.214;6.768;2023-05-02T05:40:39;101866.84;;;10.25;100.00
4972;BME280;2501;51.214;6.768;2023-05-02T05:43:07;101876.81;;;10.38;100.00
4972;BME280;2501;51.214;6.768;2023-05-02T05:45:36;101874.66;;;10.23;100.00
4972;BME280;2501;51.214;6.768;2023-05-02T05:48:05;101882.28;;;10.14;100.00
4972;BME280;2501;51.214;6.768;2023-05-02T05:50:36;101885.34;;;9.98;100.00
4972;BME280;2501;51.214;6.768;2023-05-02T05:53:05;101886.81;;;9.87;100.00
4972;BME280;2501;51.214;6.768;2023-05-02T05:55:33;101895.38;;;9.81;100.00
4972;BME280;2501;51.214;6.768;2023-05-02T05:58:02;101890.34;;;9.89;100.00
4972;BME280;2501;51.214;6.768;2023-05-02T06:00:33;101886.19;;;9.97;100.00
4972;BME280;2501;51.214;6.768;2023-05-02T06:03:01;101894.22;;;10.03;100.00
4972;BME280;2501;51.214;6.768;2023-05-02T06:05:30;101901.25;;;10.04;100.00
4972;BME280;2501;51.214;6.768;2023-05-02T06:08:01;101907.81;;;10.20;100.00
4972;BME280;2501;51.214;6.768;2023-05-02T06:10:30;101922.66;;;10.19;100.00
4972;BME280;2501;51.214;6.768;2023-05-02T06:12:59;101910.84;;;10.05;100.00
4972;BME280;2501;51.214;6.768;2023-05-02T06:15:27;101911.75;;;10.05;100.00
4972;BME280;2501;51.214;6.768;2023-05-02T06:17:56;101920.75;;;10.15;100.00
4972;BME280;2501;51.214;6.768;2023-05-02T06:20:24;101925.19;;;10.18;100.00
4972;BME280;2501;51.214;6.768;2023-05-02T06:22:52;101933.03;;;10.16;100.00
4972;BME280;2501;51.214;6.768;2023-05-02T06:25:24;101935.94;;;10.27;100.00
4972;BME280;2501;51.214;6.768;2023-05-02T06:27:52;101941.09;;;10.24;100.00
4972;BME280;2501;51.214;6.768;2023-05-02T06:30:21;101940.28;;;10.26;100.00
4972;BME280;2501;51.214;6.768;2023-05-02T06:32:49;101944.94;;;10.05;100.00
4972;BME280;2501;51.214;6.768;2023-05-02T06:35:18;101949.47;;;10.10;99.12
4972;BME280;2501;51.214;6.768;2023-05-02T06:37:46;101952.13;;;10.12;97.82
4972;BME280;2501;51.214;6.768;2023-05-02T06:40:15;101958.91;;;10.04;96.81
4972;BME280;2501;51.214;6.768;2023-05-02T06:42:46;101971.72;;;10.25;96.17
4972;BME280;2501;51.214;6.768;2023-05-02T06:45:14;101976.88;;;10.22;95.64
4972;BME280;2501;51.214;6.768;2023-05-02T06:47:43;101967.06;;;10.15;94.82
4972;BME280;2501;51.214;6.768;2023-05-02T06:50:11;101977.91;;;10.27;94.36
4972;BME280;2501;51.214;6.768;2023-05-02T06:52:40;101978.25;;;10.40;93.69
4972;BME280;2501;51.214;6.768;2023-05-02T06:55:08;101974.91;;;10.46;92.76
4972;BME280;2501;51.214;6.768;2023-05-02T06:57:37;101975.09;;;10.52;93.01
4972;BME280;2501;51.214;6.768;2023-05-02T07:00:10;101977.75;;;10.54;91.82
4972;BME280;2501;51.214;6.768;2023-05-02T07:02:38;101991.72;;;10.53;91.29
4972;BME280;2501;51.214;6.768;2023-05-02T07:05:07;101993.34;;;10.49;91.42
4972;BME280;2501;51.214;6.768;2023-05-02T07:07:36;101987.09;;;10.44;91.56
4972;BME280;2501;51.214;6.768;2023-05-02T07:10:05;101996.06;;;10.52;92.24
4972;BME280;2501;51.214;6.768;2023-05-02T07:12:34;102003.28;;;10.28;93.10
4972;BME280;2501;51.214;6.768;2023-05-02T07:15:04;101996.59;;;10.09;94.66
4972;BME280;2501;51.214;6.768;2023-05-02T07:17:35;102000.34;;;10.17;94.94
4972;BME280;2501;51.214;6.768;2023-05-02T07:20:05;102010.28;;;10.29;94.58
4972;BME280;2501;51.214;6.768;2023-05-02T07:22:34;102011.72;;;10.49;93.40
4972;BME280;2501;51.214;6.768;2023-05-02T07:25:03;102004.25;;;10.64;92.07
4972;BME280;2501;51.214;6.768;2023-05-02T07:27:31;102018.94;;;10.58;91.19
4972;BME280;2501;51.214;6.768;2023-05-02T07:30:00;102014.19;;;10.77;91.29
4972;BME280;2501;51.214;6.768;2023-05-02T07:32:29;102016.50;;;11.00;90.20
4972;BME280;2501;51.214;6.768;2023-05-02T07:35:00;102019.31;;;11.07;88.89
4972;BME280;2501;51.214;6.768;2023-05-02T07:37:32;102020.75;;;10.95;88.67
4972;BME280;2501;51.214;6.768;2023-05-02T07:40:01;102028.56;;;10.93;88.91
4972;BME280;2501;51.214;6.768;2023-05-02T07:42:30;102028.34;;;11.19;88.33
4972;BME280;2501;51.214;6.768;2023-05-02T07:44:59;102033.16;;;11.38;86.70
4972;BME280;2501;51.214;6.768;2023-05-02T07:47:27;102033.22;;;11.03;86.42
4972;BME280;2501;51.214;6.768;2023-05-02T07:49:56;102042.16;;;10.77;87.20
4972;BME280;2501;51.214;6.768;2023-05-02T07:52:27;102049.56;;;10.59;87.18
4972;BME280;2501;51.214;6.768;2023-05-02T07:54:55;102050.66;;;10.34;86.59
4972;BME280;2501;51.214;6.768;2023-05-02T07:57:25;102046.28;;;10.34;86.35
4972;BME280;2501;51.214;6.768;2023-05-02T07:59:54;102061.94;;;10.31;85.24
4972;BME280;2501;51.214;6.768;2023-05-02T08:02:24;102070.88;;;10.39;85.44
4972;BME280;2501;51.214;6.768;2023-05-02T08:04:53;102064.28;;;10.22;84.95
4972;BME280;2501;51.214;6.768;2023-05-02T08:07:22;102071.31;;;10.23;84.40
4972;BME280;2501;51.214;6.768;2023-05-02T08:09:53;102070.38;;;10.20;83.80
4972;BME280;2501;51.214;6.768;2023-05-02T08:12:24;102073.13;;;10.26;83.67
4972;BME280;2501;51.214;6.768;2023-05-02T08:14:53;102081.69;;;9.90;82.83
4972;BME280;2501;51.214;6.768;2023-05-02T08:17:22;102085.03;;;10.15;82.66
4972;BME280;2501;51.214;6.768;2023-05-02T08:19:53;102083.84;;;10.03;82.78
4972;BME280;2501;51.214;6.768;2023-05-02T08:22:21;102089.03;;;10.02;82.73
4972;BME280;2501;51.214;6.768;2023-05-02T08:24:53;102093.97;;;10.20;83.02
4972;BME280;2501;51.214;6.768;2023-05-02T08:27:21;102091.91;;;10.11;83.52
4972;BME280;2501;51.214;6.768;2023-05-02T08:29:50;102110.66;;;10.23;82.69
4972;BME280;2501;51.214;6.768;2023-05-02T08:32:18;102108.13;;;10.26;82.42
4972;BME280;2501;51.214;6.768;2023-05-02T08:34:47;102108.50;;;10.38;82.49
4972;BME280;2501;51.214;6.768;2023-05-02T08:37:16;102117.75;;;10.27;82.02
4972;BME280;2501;51.214;6.768;2023-05-02T08:39:44;102122.41;;;10.36;81.83
4972;BME280;2501;51.214;6.768;2023-05-02T08:42:16;102117.25;;;10.40;81.67
4972;BME280;2501;51.214;6.768;2023-05-02T08:44:45;102124.03;;;9.75;82.37
4972;BME280;2501;51.214;6.768;2023-05-02T08:47:14;102122.06;;;10.25;81.28
4972;BME280;2501;51.214;6.768;2023-05-02T08:49:44;102126.16;;;10.45;79.80
4972;BME280;2501;51.214;6.768;2023-05-02T08:52:14;102134.88;;;10.44;78.86
4972;BME280;2501;51.214;6.768;2023-05-02T08:54:45;102129.75;;;10.80;77.24
4972;BME280;2501;51.214;6.768;2023-05-02T08:57:18;102125.31;;;10.78;76.68
4972;BME280;2501;51.214;6.768;2023-05-02T08:59:47;102128.53;;;11.01;75.35
4972;BME280;2501;51.214;6.768;2023-05-02T09:02:25;102118.44;;;10.83;74.88
4972;BME280;2501;51.214;6.768;2023-05-02T09:05:05;102141.78;;;11.05;74.26
4972;BME280;2501;51.214;6.768;2023-05-02T09:07:43;102136.88;;;10.85;73.67
4972;BME280;2501;51.214;6.768;2023-05-02T09:10:12;102141.78;;;11.05;73.07
4972;BME280;2501;51.214;6.768;2023-05-02T09:12:43;102145.19;;;11.01;73.11
4972;BME280;2501;51.214;6.768;2023-05-02T09:15:13;102149.63;;;11.04;70.86
4972;BME280;2501;51.214;6.768;2023-05-02T09:17:44;102147.94;;;11.06;72.08
4972;BME280;2501;51.214;6.768;2023-05-02T09:20:14;102148.41;;;11.26;71.31
4972;BME280;2501;51.214;6.768;2023-05-02T09:22:50;102155.19;;;11.16;71.24
4972;BME280;2501;51.214;6.768;2023-05-02T09:25:19;102163.59;;;11.03;74.28
4972;BME280;2501;51.214;6.768;2023-05-02T09:27:52;102160.47;;;11.18;73.45
4972;BME280;2501;51.214;6.768;2023-05-02T09:30:23;102161.25;;;11.13;72.82
4972;BME280;2501;51.214;6.768;2023-05-02T09:32:52;102160.75;;;11.28;72.43
4972;BME280;2501;51.214;6.768;2023-05-02T09:35:21;102170.50;;;11.32;71.87
4972;BME280;2501;51.214;6.768;2023-05-02T09:37:53;102172.81;;;11.20;72.07
4972;BME280;2501;51.214;6.768;2023-05-02T09:40:22;102171.53;;;11.39;71.15
4972;BME280;2501;51.214;6.768;2023-05-02T09:42:55;102178.03;;;11.19;70.42
4972;BME280;2501;51.214;6.768;2023-05-02T09:45:24;102184.06;;;11.16;70.62
4972;BME280;2501;51.214;6.768;2023-05-02T09:47:53;102184.69;;;11.39;70.08
4972;BME280;2501;51.214;6.768;2023-05-02T09:50:32;102190.19;;;11.49;69.46
4972;BME280;2501;51.214;6.768;2023-05-02T09:53:01;102189.63;;;11.63;69.77
4972;BME280;2501;51.214;6.768;2023-05-02T09:55:30;102194.78;;;11.58;68.42
4972;BME280;2501;51.214;6.768;2023-05-02T09:58:01;102195.94;;;11.35;68.67
4972;BME280;2501;51.214;6.768;2023-05-02T10:00:41;102204.75;;;11.71;66.86
4972;BME280;2501;51.214;6.768;2023-05-02T10:03:10;102207.00;;;11.56;66.08
4972;BME280;2501;51.214;6.768;2023-05-02T10:05:43;102216.72;;;11.60;65.57
4972;BME280;2501;51.214;6.768;2023-05-02T10:08:13;102206.56;;;11.74;65.08
4972;BME280;2501;51.214;6.768;2023-05-02T10:10:45;102209.88;;;11.67;65.52
4972;BME280;2501;51.214;6.768;2023-05-02T10:13:19;102202.34;;;11.80;65.00
4972;BME280;2501;51.214;6.768;2023-05-02T10:15:52;102203.06;;;11.73;65.16
4972;BME280;2501;51.214;6.768;2023-05-02T10:18:26;102214.09;;;11.59;65.44
4972;BME280;2501;51.214;6.768;2023-05-02T10:20:57;102216.66;;;11.57;65.19
4972;BME280;2501;51.214;6.768;2023-05-02T10:23:27;102214.72;;;11.50;65.12
4972;BME280;2501;51.214;6.768;2023-05-02T10:25:57;102209.81;;;11.64;64.37
4972;BME280;2501;51.214;6.768;2023-05-02T10:28:29;102218.19;;;11.49;63.36
4972;BME280;2501;51.214;6.768;2023-05-02T10:30:59;102214.00;;;11.90;63.03
4972;BME280;2501;51.214;6.768;2023-05-02T10:33:30;102213.28;;;11.97;61.86
4972;BME280;2501;51.214;6.768;2023-05-02T10:36:01;102200.31;;;12.05;59.81
4972;BME280;2501;51.214;6.768;2023-05-02T10:38:30;102198.84;;;12.58;57.70
4972;BME280;2501;51.214;6.768;2023-05-02T10:41:00;102203.94;;;12.93;55.88
4972;BME280;2501;51.214;6.768;2023-05-02T10:43:34;102196.06;;;12.94;55.30
4972;BME280;2501;51.214;6.768;2023-05-02T10:46:29;102193.75;;;12.67;55.45
4972;BME280;2501;51.214;6.768;2023-05-02T10:49:03;102195.72;;;12.35;56.00
4972;BME280;2501;51.214;6.768;2023-05-02T10:51:32;102205.88;;;12.58;57.04
4972;BME280;2501;51.214;6.768;2023-05-02T10:54:20;102224.53;;;11.90;59.63
4972;BME280;2501;51.214;6.768;2023-05-02T10:57:05;102214.56;;;11.78;61.13
4972;BME280;2501;51.214;6.768;2023-05-02T10:59:38;102222.56;;;11.48;61.76
4972;BME280;2501;51.214;6.768;2023-05-02T11:05:06;102215.00;;;11.97;61.34
4972;BME280;2501;51.214;6.768;2023-05-02T11:07:35;102216.09;;;12.05;60.70
4972;BME280;2501;51.214;6.768;2023-05-02T11:10:25;102219.38;;;11.95;59.05
4972;BME280;2501;51.214;6.768;2023-05-02T11:12:55;102216.13;;;12.06;57.91
4972;BME280;2501;51.214;6.768;2023-05-02T11:15:58;102231.34;;;11.83;57.53
4972;BME280;2501;51.214;6.768;2023-05-02T11:18:26;102220.59;;;11.74;56.53
4972;BME280;2501;51.214;6.768;2023-05-02T11:21:25;102222.59;;;11.83;56.56
4972;BME280;2501;51.214;6.768;2023-05-02T11:27:36;102227.31;;;11.63;55.75
4972;BME280;2501;51.214;6.768;2023-05-02T11:30:09;102209.16;;;11.72;56.77
4972;BME280;2501;51.214;6.768;2023-05-02T11:35:40;102210.19;;;11.77;56.61
4972;BME280;2501;51.214;6.768;2023-05-02T11:38:11;102212.78;;;12.12;56.85
4972;BME280;2501;51.214;6.768;2023-05-02T11:40:46;102218.53;;;12.35;56.52
4972;BME280;2501;51.214;6.768;2023-05-02T11:43:18;102218.03;;;12.12;55.02
4972;BME280;2501;51.214;6.768;2023-05-02T11:45:47;102220.34;;;12.79;53.79
4972;BME280;2501;51.214;6.768;2023-05-02T11:48:17;102230.22;;;12.49;53.49
4972;BME280;2501;51.214;6.768;2023-05-02T11:50:50;102224.44;;;12.64;53.53
4972;BME280;2501;51.214;6.768;2023-05-02T11:53:20;102227.44;;;12.83;52.28
4972;BME280;2501;51.214;6.768;2023-05-02T11:55:51;102238.63;;;12.72;52.49
4972;BME280;2501;51.214;6.768;2023-05-02T11:58:21;102233.72;;;12.48;52.99
4972;BME280;2501;51.214;6.768;2023-05-02T12:00:51;102233.31;;;13.14;51.59
4972;BME280;2501;51.214;6.768;2023-05-02T12:03:27;102235.97;;;12.72;54.64
4972;BME280;2501;51.214;6.768;2023-05-02T12:06:09;102244.81;;;12.74;54.72
4972;BME280;2501;51.214;6.768;2023-05-02T12:08:38;102235.31;;;12.82;54.03
4972;BME280;2501;51.214;6.768;2023-05-02T12:11:07;102247.97;;;13.01;54.37
4972;BME280;2501;51.214;6.768;2023-05-02T12:13:43;102248.41;;;12.77;52.03
4972;BME280;2501;51.214;6.768;2023-05-02T12:16:12;102252.31;;;12.99;51.73
4972;BME280;2501;51.214;6.768;2023-05-02T12:18:41;102252.88;;;13.25;51.29
4972;BME280;2501;51.214;6.768;2023-05-02T12:21:13;102266.09;;;12.86;51.70
4972;BME280;2501;51.214;6.768;2023-05-02T12:23:41;102255.25;;;13.13;51.12
4972;BME280;2501;51.214;6.768;2023-05-02T12:26:17;102259.59;;;12.69;51.91
4972;BME280;2501;51.214;6.768;2023-05-02T12:28:49;102262.50;;;12.79;51.69
4972;BME280;2501;51.214;6.768;2023-05-02T12:31:19;102261.22;;;13.04;51.21
4972;BME280;2501;51.214;6.768;2023-05-02T12:33:48;102266.81;;;13.19;50.04
4972;BME280;2501;51.214;6.768;2023-05-02T12:36:22;102265.41;;;13.38;49.42
4972;BME280;2501;51.214;6.768;2023-05-02T12:38:53;102266.22;;;13.33;49.08
4972;BME280;2501;51.214;6.768;2023-05-02T12:41:33;102271.50;;;12.92;49.77
4972;BME280;2501;51.214;6.768;2023-05-02T12:44:03;102277.50;;;12.85;50.87
4972;BME280;2501;51.214;6.768;2023-05-02T12:46:32;102266.56;;;13.54;49.12
4972;BME280;2501;51.214;6.768;2023-05-02T12:49:02;102273.41;;;12.99;48.52
4972;BME280;2501;51.214;6.768;2023-05-02T12:51:35;102271.84;;;13.09;49.08
4972;BME280;2501;51.214;6.768;2023-05-02T12:54:04;102281.44;;;13.05;49.30
4972;BME280;2501;51.214;6.768;2023-05-02T12:56:38;102287.75;;;12.71;49.33
4972;BME280;2501;51.214;6.768;2023-05-02T12:59:08;102283.31;;;12.31;49.74
4972;BME280;2501;51.214;6.768;2023-05-02T13:01:37;102299.13;;;12.31;50.13
4972;BME280;2501;51.214;6.768;2023-05-02T13:04:06;102289.75;;;12.42;49.55
4972;BME280;2501;51.214;6.768;2023-05-02T13:06:37;102289.78;;;12.44;48.88
4972;BME280;2501;51.214;6.768;2023-05-02T13:09:05;102285.38;;;13.26;47.65
4972;BME280;2501;51.214;6.768;2023-05-02T13:11:34;102287.31;;;13.82;46.49
4972;BME280;2501;51.214;6.768;2023-05-02T13:14:03;102285.41;;;13.75;46.05
4972;BME280;2501;51.214;6.768;2023-05-02T13:16:32;102291.13;;;13.50;45.76
4972;BME280;2501;51.214;6.768;2023-05-02T13:19:01;102290.22;;;13.99;45.02
4972;BME280;2501;51.214;6.768;2023-05-02T13:21:30;102297.94;;;14.41;43.55
4972;BME280;2501;51.214;6.768;2023-05-02T13:24:01;102288.03;;;13.26;45.27
4972;BME280;2501;51.214;6.768;2023-05-02T13:26:31;102283.78;;;13.34;45.58
4972;BME280;2501;51.214;6.768;2023-05-02T13:28:59;102290.53;;;13.19;45.25
4972;BME280;2501;51.214;6.768;2023-05-02T13:31:28;102279.91;;;13.62;44.65
4972;BME280;2501;51.214;6.768;2023-05-02T13:33:56;102297.38;;;13.11;45.64
4972;BME280;2501;51.214;6.768;2023-05-02T13:36:25;102279.34;;;13.31;44.54